ADDS METAR Data INFO
IDs: Format: Raw Decoded Include TAF

Data at: 0501 UTC 23 May 2017

KE38 230455Z AUTO 05004KT 10SM OVC004 17/16 A3013 RMK AO2 T01650155
KE38 230435Z AUTO 05008KT 10SM BKN006 BKN010 OVC020 17/15 A3013 RMK AO2 T01650151
KE38 230415Z AUTO 05014G20KT 10SM SCT006 SCT010 SCT020 17/15 A3014 RMK AO2 T01670145
KE38 230355Z AUTO 04010G16KT 10SM CLR 18/13 A3011 RMK AO2 T01780130
KE38 230335Z AUTO 01016G20KT 10SM CLR 17/12 A3009 RMK AO2 T01650124
KE38 230315Z AUTO 00000KT 10SM CLR 16/13 A3005 RMK AO2 T01630127
KE38 230255Z AUTO 26003KT 10SM CLR 17/13 A3005 RMK AO2 T01650125
KE38 230235Z AUTO 24004KT 10SM CLR 17/12 A3005 RMK AO2 T01680122
KE38 230215Z AUTO 29004KT 10SM CLR 17/12 A3005 RMK AO2 T01700123
KE38 230155Z AUTO 00000KT 10SM CLR 18/12 A3005 RMK AO2 T01830120
KE38 230135Z AUTO 08005KT 10SM CLR 19/12 A3006 RMK AO2 T01880120
KE38 230115Z AUTO 07009KT 10SM CLR 20/12 A3006 RMK AO2 LTG DSNT SE T01950116
KE38 230055Z AUTO 07014KT 10SM CLR 21/12 A3006 RMK AO2 T02120122
KE38 230035Z AUTO 05009KT 10SM SCT120 22/13 A3005 RMK AO2 T02220126
KE38 230015Z AUTO 36009KT 10SM CLR 22/12 A3005 RMK AO2 T02200120
KE38 222355Z AUTO 36016G22KT 10SM SCT110 23/10 A3004 RMK AO2 LTG DSNT NE AND S T02310102 10306 20231
KE38 222335Z AUTO 04007KT 10SM SCT120 27/08 A3003 RMK AO2 LTG DSNT N AND NE T02710080
KE38 222315Z AUTO 11005KT 10SM VCTS SCT110 27/08 A3000 RMK AO2 LTG DSNT N T02690081
KE38 222255Z AUTO 10008KT 10SM SCT110 27/08 A3001 RMK AO2 T02660082
KE38 222235Z AUTO 10012KT 10SM CLR 28/08 A3001 RMK AO2 LTG DSNT E T02810075
KE38 222215Z AUTO 09012G16KT 10SM CLR 29/05 A3001 RMK AO2 T02880045
KE38 222155Z AUTO 08008G14KT 10SM CLR 29/05 A3002 RMK AO2 LTG DSNT E T02850052
KE38 222135Z AUTO 09008G16KT 10SM SCT120 29/06 A3002 RMK AO2 T02850063
KE38 222115Z AUTO 03010G18KT 10SM SCT110 28/10 A3004 RMK AO2 LTG DSNT E T02800103
KE38 222055Z AUTO 06011G20KT 230V080 10SM CLR 30/09 A3004 RMK AO2 T02990093
KE38 222035Z AUTO 26004KT 10SM CLR 30/04 A3005 RMK AO2 T03030044
KE38 222015Z AUTO 17004KT 10SM CLR 29/06 A3006 RMK AO2 T02940057
KE38 221955Z AUTO 18005KT 10SM CLR 29/06 A3007 RMK AO2 T02910064
KE38 221935Z AUTO 17005KT 10SM CLR 29/08 A3008 RMK AO2 T02910080
KE38 221915Z AUTO 18006KT 10SM CLR 28/11 A3009 RMK AO2 T02800106
KE38 221855Z AUTO 19005KT 10SM CLR 27/11 A3010 RMK AO2 T02720107
KE38 221835Z AUTO 24006KT 10SM CLR 27/11 A3011 RMK AO2 T02670114
KE38 221815Z AUTO 23005KT 10SM CLR 26/13 A3012 RMK AO2 T02580126
KE38 221755Z AUTO 24006KT 10SM CLR 26/13 A3012 RMK AO2 T02550131 10256 20135
KE38 221735Z AUTO 22006KT 10SM CLR 25/14 A3013 RMK AO2 T02510137
KE38 221715Z AUTO 25006KT 10SM CLR 24/14 A3013 RMK AO2 T02440140
KE38 221655Z AUTO 24007KT 10SM CLR 23/14 A3014 RMK AO2 T02340143
KE38 221635Z AUTO 23006KT 10SM SCT031 23/14 A3015 RMK AO2 T02300142
KE38 221615Z AUTO 25004KT 10SM SCT029 23/14 A3015 RMK AO2 T02280142
KE38 221555Z AUTO 25006KT 10SM SCT027 23/14 A3015 RMK AO2 T02250142
KE38 221535Z AUTO 00000KT 10SM CLR 22/14 A3015 RMK AO2 T02170140
KE38 221515Z AUTO 24007KT 10SM CLR 22/14 A3015 RMK AO2 T02150140
KE38 221455Z AUTO 23008KT 10SM CLR 21/14 A3015 RMK AO2 T02060138
KE38 221435Z AUTO 00000KT 10SM CLR 19/14 A3015 RMK AO2 T01940136
KE38 221415Z AUTO 25005KT 10SM CLR 19/14 A3015 RMK AO2 T01850135
KE38 221355Z AUTO 23004KT 10SM CLR 18/13 A3015 RMK AO2 T01750132
KE38 221335Z AUTO 23006KT 10SM CLR 17/13 A3015 RMK AO2 T01660131
KE38 221315Z AUTO 23007KT 10SM CLR 16/13 A3015 RMK AO2 T01570129
KE38 221255Z AUTO 21005KT 10SM CLR 15/13 A3015 RMK AO2 T01500129
KE38 221235Z AUTO 21005KT 10SM CLR 14/13 A3015 RMK AO2 T01410125
KE38 221215Z AUTO 20006KT 10SM CLR 14/12 A3015 RMK AO2 T01350122
KE38 221155Z AUTO 20008KT 10SM CLR 14/12 A3014 RMK AO2 70059 T01380123 10160 20132
KE38 221135Z AUTO 18004KT 10SM CLR 14/12 A3015 RMK AO2 T01370118
KE38 221115Z AUTO 20004KT 10SM CLR 14/12 A3015 RMK AO2 T01420119
KE38 221055Z AUTO 00000KT 10SM CLR 13/11 A3015 RMK AO2 T01320111
KE38 221035Z AUTO 25005KT 10SM CLR 13/11 A3015 RMK AO2 T01340110
KE38 221015Z AUTO 22006KT 10SM CLR 14/12 A3015 RMK AO2 T01420115
KE38 220955Z AUTO 24011KT 10SM CLR 15/12 A3014 RMK AO2 T01450119
KE38 220935Z AUTO 21006KT 10SM CLR 15/12 A3015 RMK AO2 T01500117
KE38 220915Z AUTO 21007KT 10SM CLR 14/12 A3016 RMK AO2 T01440120
KE38 220855Z AUTO 24003KT 10SM CLR 14/12 A3016 RMK AO2 T01400115
KE38 220835Z AUTO 19004KT 10SM CLR 15/11 A3016 RMK AO2 T01450113
KE38 220815Z AUTO 22005KT 10SM CLR 14/11 A3018 RMK AO2 T01380112
KE38 220755Z AUTO 23004KT 10SM CLR 14/11 A3018 RMK AO2 T01360111
KE38 220735Z AUTO 16003KT 10SM CLR 15/11 A3019 RMK AO2 T01500111
KE38 220715Z AUTO 22003KT 10SM CLR 15/11 A3019 RMK AO2 T01520111
KE38 220655Z AUTO 19005KT 10SM CLR 16/11 A3019 RMK AO2 T01570113
KE38 220635Z AUTO 22004KT 10SM CLR 16/12 A3019 RMK AO2 T01560115
KE38 220615Z AUTO 23005KT 10SM CLR 15/12 A3019 RMK AO2 T01450115
KE38 220555Z AUTO 17007KT 10SM CLR 14/12 A3020 RMK AO2 T01430117 10195 20140 402310126
KE38 220535Z AUTO 17006KT 10SM CLR 15/12 A3019 RMK AO2 T01450117
KE38 220515Z AUTO 17007KT 10SM CLR 15/12 A3020 RMK AO2 T01530118
KE38 220455Z AUTO 18009KT 10SM CLR 15/12 A3020 RMK AO2 T01520117
KE38 220435Z AUTO 18008G14KT 10SM CLR 15/12 A3020 RMK AO2 T01540116
KE38 220415Z AUTO 19008KT 10SM CLR 15/12 A3020 RMK AO2 T01520121
KE38 220355Z AUTO 17009KT 10SM CLR 16/13 A3020 RMK AO2 T01550125
KE38 220335Z AUTO 17010G14KT 10SM CLR 16/12 A3019 RMK AO2 T01560123
KE38 220315Z AUTO 17011KT 10SM CLR 16/12 A3019 RMK AO2 T01560121
KE38 220255Z AUTO 17012G17KT 10SM CLR 16/12 A3019 RMK AO2 T01560122
KE38 220235Z AUTO 17007KT 10SM CLR 16/12 A3018 RMK AO2 T01590123
KE38 220215Z AUTO 17007KT 10SM CLR 16/12 A3017 RMK AO2 T01610123
KE38 220155Z AUTO 16009G14KT 10SM CLR 17/13 A3017 RMK AO2 T01650125
KE38 220135Z AUTO 17008KT 10SM CLR 17/13 A3016 RMK AO2 T01680126
KE38 220115Z AUTO 14008G14KT 10SM CLR 17/13 A3016 RMK AO2 T01710126
KE38 220055Z AUTO 14011KT 10SM CLR 18/13 A3015 RMK AO2 T01760125
KE38 220035Z AUTO 14010KT 10SM CLR 18/12 A3015 RMK AO2 T01820120
KE38 220015Z AUTO 14011G16KT 10SM CLR 19/12 A3015 RMK AO2 LTG DSNT SE T01850120
KE38 212355Z AUTO 13014KT 10SM CLR 20/12 A3015 RMK AO2 T01980117 10231 20196
KE38 212335Z AUTO 13009KT 10SM CLR 21/11 A3014 RMK AO2 T02060110
KE38 212315Z AUTO 13009KT 10SM CLR 21/11 A3015 RMK AO2 T02060109
KE38 212255Z AUTO 13010KT 10SM CLR 21/11 A3013 RMK AO2 T02120111
KE38 212235Z AUTO 13010KT 10SM CLR 21/11 A3013 RMK AO2 T02130112
KE38 212215Z AUTO 13012KT 10SM CLR 22/10 A3013 RMK AO2 T02170104
KE38 212155Z AUTO 13011KT 10SM CLR 23/11 A3013 RMK AO2 T02250107
KE38 212135Z AUTO 14009KT 10SM CLR 21/11 A3014 RMK AO2 T02130112
KE38 212115Z AUTO 12008KT 10SM CLR 21/11 A3015 RMK AO2 T02070112
KE38 212055Z AUTO 13010KT 10SM CLR 20/11 A3016 RMK AO2 T02040109
KE38 212035Z AUTO 12011G15KT 10SM CLR 22/11 A3015 RMK AO2 T02180110
KE38 212015Z AUTO 16014KT 10SM CLR 21/12 A3016 RMK AO2 T02140115
KE38 211955Z AUTO 16011G15KT 10SM CLR 23/10 A3016 RMK AO2 T02250096
KE38 211935Z AUTO 11005KT 10SM CLR 23/10 A3017 RMK AO2 T02270097
KE38 211915Z AUTO 09003KT 10SM CLR 22/10 A3017 RMK AO2 LTG DSNT E T02210099
KE38 211855Z AUTO 36004KT 10SM CLR 22/10 A3015 RMK AO2 LTG DSNT SE T02170100
KE38 211835Z AUTO 35006KT 10SM CLR 21/10 A3015 RMK AO2 T02140101
KE38 211815Z AUTO 26004KT 10SM SCT120 20/10 A3015 RMK AO2 T02040102
KE38 211755Z AUTO 17007KT 10SM SCT110 20/11 A3015 RMK AO2 60059 T01950105 10195 20126
KE38 211735Z AUTO 15010KT 10SM SCT016 SCT044 OVC110 19/12 A3017 RMK AO2 T01870117
KE38 211715Z AUTO 14014KT 10SM SCT016 BKN090 OVC110 18/12 A3019 RMK AO2 T01830115


Page loaded:  05:01 UTC  |   10:01 PM Pacific  |   11:01 PM Mountain  |   12:01 AM Central  |   01:01 AM Eastern

 

ADVISORIES

FORECASTS

FORECASTS

OBSERVATIONS

USER TOOLS

ABOUT US